Time;durP1;ratioP1;P1;durP2;ratioP2;P2;SDS_P1;SDS_P2;PMS_P1;PMS_P2;Temp;Humidity;BMP_temperature;BMP_pressure;BME280_temperature;BME280_humidity;BME280_pressure;Samples;Min_cycle;Max_cycle;Signal;HPM_P1;HPM_P2
2021/07/22 00:01:41;;;;;;;9.60;6.37;;;;;;;19.59;77.58;99868.80;1751085;82;21184;-56
2021/07/22 00:04:47;;;;;;;9.33;7.10;;;;;;;19.57;77.64;99862.67;1751050;81;21894;-55
2021/07/22 00:07:52;;;;;;;10.30;7.05;;;;;;;19.51;77.76;99855.30;1751060;81;21358;-55
2021/07/22 00:10:59;;;;;;;13.85;7.10;;;;;;;19.46;77.94;99860.73;1751018;82;21882;-57
2021/07/22 00:14:04;;;;;;;10.82;7.40;;;;;;;19.41;78.10;99855.11;1751112;81;21235;-57
2021/07/22 00:17:10;;;;;;;12.35;7.37;;;;;;;19.37;78.22;99856.67;1751154;82;21256;-57
2021/07/22 00:20:17;;;;;;;13.28;7.12;;;;;;;19.32;78.40;99854.64;1751172;82;21342;-56
2021/07/22 00:23:27;;;;;;;11.05;7.03;;;;;;;19.27;78.59;99842.86;1735760;82;21223;-56
2021/07/22 00:26:32;;;;;;;10.85;7.72;;;;;;;19.25;78.74;99846.41;1733663;82;21326;-57
2021/07/22 00:29:43;;;;;;;12.25;7.97;;;;;;;19.23;78.88;99845.80;1751178;81;21231;-56
2021/07/22 00:32:49;;;;;;;9.83;7.90;;;;;;;19.21;79.04;99851.31;1751041;81;21366;-56
2021/07/22 00:35:58;;;;;;;9.93;7.33;;;;;;;19.19;79.18;99850.70;1747320;82;21385;-56
2021/07/22 00:39:03;;;;;;;8.88;7.10;;;;;;;19.20;79.28;99851.02;1750742;81;21235;-56
2021/07/22 00:42:13;;;;;;;8.63;6.33;;;;;;;19.21;79.30;99858.25;1750899;82;21207;-57
2021/07/22 00:45:18;;;;;;;10.53;6.78;;;;;;;19.21;79.35;99854.09;1751198;82;21199;-57
2021/07/22 00:48:23;;;;;;;11.25;6.87;;;;;;;19.22;79.42;99860.78;1751498;81;21222;-57
2021/07/22 00:51:30;;;;;;;8.70;6.97;;;;;;;19.23;79.40;99862.45;1751614;82;21219;-57
2021/07/22 00:54:35;;;;;;;10.82;7.85;;;;;;;19.24;79.39;99864.16;1751529;81;21263;-55
2021/07/22 00:57:41;;;;;;;11.12;7.75;;;;;;;19.25;79.42;99860.82;1751745;81;21345;-56
2021/07/22 01:00:47;;;;;;;8.10;6.45;;;;;;;19.26;79.42;99866.16;1751745;82;21851;-56
2021/07/22 01:03:53;;;;;;;10.88;7.55;;;;;;;19.29;79.38;99864.84;1751586;81;21350;-56
2021/07/22 01:06:59;;;;;;;10.25;7.08;;;;;;;19.31;79.34;99873.21;1727501;81;21437;-57
2021/07/22 01:10:05;;;;;;;9.98;7.58;;;;;;;19.32;79.28;99865.73;1751187;82;21263;-56
2021/07/22 01:13:12;;;;;;;10.38;6.70;;;;;;;19.36;79.20;99868.88;1751466;81;21195;-56
2021/07/22 01:16:18;;;;;;;11.85;7.78;;;;;;;19.38;79.09;99875.03;1751303;82;21199;-57
2021/07/22 01:19:23;;;;;;;9.20;7.03;;;;;;;19.37;79.06;99885.82;1748180;81;21736;-57
2021/07/22 01:22:30;;;;;;;10.38;7.40;;;;;;;19.36;79.02;99882.75;1750018;81;21713;-56
2021/07/22 01:25:35;;;;;;;10.00;7.22;;;;;;;19.36;79.03;99890.52;1749097;82;21187;-58
2021/07/22 01:28:40;;;;;;;11.28;7.47;;;;;;;19.37;78.97;99882.51;1750612;81;21658;-56
2021/07/22 01:31:45;;;;;;;10.93;7.47;;;;;;;19.37;78.97;99887.20;1749023;82;21172;-56
2021/07/22 01:34:51;;;;;;;10.80;7.40;;;;;;;19.39;78.98;99891.98;1750782;82;21267;-58
2021/07/22 01:37:58;;;;;;;10.28;6.97;;;;;;;19.42;78.90;99893.73;1754325;81;21211;-56
2021/07/22 01:41:04;;;;;;;13.80;7.90;;;;;;;19.44;78.86;99894.30;1741898;82;21315;-56
2021/07/22 01:44:11;;;;;;;9.50;7.33;;;;;;;19.47;78.76;99905.48;1755580;81;21227;-55
2021/07/22 01:47:16;;;;;;;15.88;8.50;;;;;;;19.46;78.64;99898.22;1742236;82;21354;-55
2021/07/22 01:50:23;;;;;;;11.38;7.72;;;;;;;19.45;78.62;99910.42;1727593;81;21586;-56
2021/07/22 01:53:29;;;;;;;12.28;7.70;;;;;;;19.45;78.65;99917.37;1753167;81;21425;-55
2021/07/22 01:56:37;;;;;;;10.88;7.25;;;;;;;19.41;78.67;99917.57;1742241;82;21720;-55
2021/07/22 01:59:44;;;;;;;10.60;7.62;;;;;;;19.42;78.77;99926.19;1755714;81;21243;-55
2021/07/22 02:02:53;;;;;;;10.32;7.70;;;;;;;19.41;78.83;99923.13;1753221;81;21445;-56
2021/07/22 02:06:17;;;;;;;10.35;7.65;;;;;;;19.42;78.88;99920.10;1742314;82;21437;-55
2021/07/22 02:09:22;;;;;;;11.93;7.75;;;;;;;19.43;78.82;99925.09;1742139;82;21209;-56
2021/07/22 02:12:29;;;;;;;10.05;6.85;;;;;;;19.45;78.79;99921.53;1755893;81;21207;-55
2021/07/22 02:15:37;;;;;;;11.75;7.12;;;;;;;19.45;78.79;99939.58;1742111;82;21410;-56
2021/07/22 02:18:45;;;;;;;13.20;7.58;;;;;;;19.45;78.76;99936.80;1755702;81;21231;-55
2021/07/22 02:21:52;;;;;;;11.60;7.20;;;;;;;19.46;78.85;99944.03;1742474;82;21287;-55
2021/07/22 02:24:59;;;;;;;10.72;7.45;;;;;;;19.48;78.85;99944.11;1742322;82;21865;-56
2021/07/22 02:28:06;;;;;;;12.58;8.23;;;;;;;19.48;78.82;99949.66;1755831;81;21243;-58
2021/07/22 02:31:11;;;;;;;9.73;7.47;;;;;;;19.48;78.83;99946.03;1742020;82;21236;-54
2021/07/22 02:34:19;;;;;;;13.35;8.15;;;;;;;19.49;78.75;99955.50;1750596;81;21901;-57
2021/07/22 02:37:27;;;;;;;11.83;7.50;;;;;;;19.47;78.77;99947.98;1742140;81;21232;-56
2021/07/22 02:40:36;;;;;;;11.25;7.47;;;;;;;19.48;78.84;99948.80;1739671;82;21220;-55
2021/07/22 02:43:43;;;;;;;12.78;8.00;;;;;;;19.50;78.75;99959.12;1740325;82;21262;-57
2021/07/22 02:46:50;;;;;;;12.15;7.78;;;;;;;19.52;78.72;99968.89;1739620;82;21582;-56
2021/07/22 02:49:56;;;;;;;9.58;7.25;;;;;;;19.51;78.64;99960.27;1739637;82;21219;-57
2021/07/22 02:53:03;;;;;;;11.78;8.13;;;;;;;19.51;78.70;99978.86;1739577;82;21255;-57
2021/07/22 02:56:11;;;;;;;13.45;8.30;;;;;;;19.48;78.70;99968.24;1732439;82;21197;-57
2021/07/22 02:59:20;;;;;;;11.45;8.43;;;;;;;19.46;78.78;99963.47;1739400;82;21898;-58
2021/07/22 03:02:28;;;;;;;12.47;8.58;;;;;;;19.44;78.96;99978.16;1739471;82;21719;-59
2021/07/22 03:05:37;;;;;;;13.05;8.40;;;;;;;19.44;79.09;99979.55;1739695;82;21232;-57
2021/07/22 03:08:42;;;;;;;11.15;8.68;;;;;;;19.42;79.19;99985.34;1739767;82;21267;-61
2021/07/22 03:11:48;;;;;;;15.50;8.55;;;;;;;19.42;79.21;99977.55;1739669;82;21211;-59
2021/07/22 03:14:55;;;;;;;13.35;8.73;;;;;;;19.42;79.28;99985.34;1739552;82;21209;-61
2021/07/22 03:18:03;;;;;;;24.75;13.83;;;;;;;19.43;79.28;99985.63;1739645;82;21401;-59
2021/07/22 03:21:08;;;;;;;21.48;12.35;;;;;;;19.46;79.24;99996.78;1739597;82;21779;-59
2021/07/22 03:24:16;;;;;;;38.85;21.30;;;;;;;19.45;79.18;99993.19;1737275;82;21251;-58
2021/07/22 03:27:24;;;;;;;35.92;19.15;;;;;;;19.44;79.23;99990.66;1740549;82;21232;-60
2021/07/22 03:30:31;;;;;;;33.75;18.27;;;;;;;19.47;79.25;99992.94;1740066;82;21255;-58
2021/07/22 03:33:54;;;;;;;32.40;16.77;;;;;;;19.48;79.25;99994.08;1739448;82;21251;-57
2021/07/22 03:37:02;;;;;;;68.28;33.42;;;;;;;19.44;79.21;99997.03;1739659;82;21252;-60
2021/07/22 03:40:07;;;;;;;46.65;23.15;;;;;;;19.46;79.28;100004.58;1728007;81;21869;-60
2021/07/22 03:43:14;;;;;;;23.45;13.05;;;;;;;19.45;79.12;99997.88;1727523;83;21390;-58
2021/07/22 03:46:22;;;;;;;27.80;16.07;;;;;;;19.46;79.14;100003.19;1751020;82;21259;-61
2021/07/22 03:49:28;;;;;;;23.67;13.80;;;;;;;19.48;79.05;99993.23;1751283;81;21271;-60
2021/07/22 03:52:39;;;;;;;15.83;9.70;;;;;;;19.51;78.92;99994.13;1750972;81;21223;-60
2021/07/22 03:55:45;;;;;;;19.50;10.23;;;;;;;19.57;78.67;100002.90;1748808;82;21207;-60
2021/07/22 03:58:53;;;;;;;13.90;9.83;;;;;;;19.62;78.38;99998.82;1751369;81;21243;-61
2021/07/22 04:02:02;;;;;;;13.90;9.38;;;;;;;19.65;78.20;100001.97;1751542;82;21204;-58
2021/07/22 04:05:09;;;;;;;15.63;9.90;;;;;;;19.74;78.20;100007.43;1748426;82;21810;-60
2021/07/22 04:08:16;;;;;;;15.75;9.38;;;;;;;19.80;77.63;100010.65;1751587;81;21317;-60
2021/07/22 04:11:28;;;;;;;14.80;9.00;;;;;;;19.78;77.41;100005.02;1750982;82;21424;-58
2021/07/22 04:14:51;;;;;;;13.55;8.33;;;;;;;19.74;77.16;100017.72;1751698;82;21353;-61
2021/07/22 04:18:10;;;;;;;11.38;8.10;;;;;;;19.72;77.18;100008.78;1751455;81;21243;-60
2021/07/22 04:21:26;;;;;;;12.53;9.05;;;;;;;19.69;77.20;100013.44;1751350;82;22208;-60
2021/07/22 04:24:38;;;;;;;10.70;8.18;;;;;;;19.69;77.16;100018.99;1751173;81;21270;-61
2021/07/22 04:28:03;;;;;;;10.98;8.53;;;;;;;19.71;77.17;100014.05;1751322;81;21413;-61
2021/07/22 04:31:09;;;;;;;12.55;9.03;;;;;;;19.71;77.00;100014.88;1748951;82;21191;-60
2021/07/22 04:34:33;;;;;;;14.63;8.78;;;;;;;19.73;76.92;100018.25;1748740;81;21220;-60
2021/07/22 04:37:41;;;;;;;14.50;8.43;;;;;;;19.75;76.81;100023.03;1725765;82;21251;-58
2021/07/22 04:40:52;;;;;;;11.73;7.80;;;;;;;19.79;76.87;100020.05;1697903;81;21608;-61
2021/07/22 04:43:58;;;;;;;12.33;7.53;;;;;;;19.85;76.79;100019.63;1735282;82;21859;-59
2021/07/22 04:47:15;;;;;;;12.47;7.47;;;;;;;19.93;76.58;100019.25;1732514;81;21740;-58
2021/07/22 04:50:28;;;;;;;10.93;7.72;;;;;;;20.05;76.14;100013.11;1741181;82;21180;-58
2021/07/22 04:53:43;;;;;;;19.48;7.90;;;;;;;20.22;75.61;100019.61;1725648;83;21243;-57
2021/07/22 04:56:48;;;;;;;9.78;7.45;;;;;;;20.40;75.07;100018.03;1724463;83;21597;-57
2021/07/22 04:59:57;;;;;;;10.63;7.30;;;;;;;20.55;74.12;100014.17;1724793;83;21223;-56
2021/07/22 05:03:06;;;;;;;11.75;7.37;;;;;;;20.68;73.97;100009.13;1709415;84;21248;-55
2021/07/22 05:06:15;;;;;;;9.90;7.40;;;;;;;20.86;73.16;100018.34;1704280;84;21231;-56
2021/07/22 05:09:31;;;;;;;15.63;7.45;;;;;;;20.99;72.61;100016.12;1719972;80;21798;-54
2021/07/22 05:12:50;;;;;;;11.85;7.72;;;;;;;21.12;71.60;100014.38;1727080;81;21298;-53
2021/07/22 05:15:58;;;;;;;10.85;6.90;;;;;;;21.16;70.83;100011.93;1747793;81;21239;-52
2021/07/22 05:19:16;;;;;;;11.68;7.20;;;;;;;21.15;70.87;100016.67;1737670;81;21199;-55
2021/07/22 05:22:32;;;;;;;10.03;7.40;;;;;;;21.14;70.71;100013.58;1742710;80;21243;-54
2021/07/22 05:26:00;;;;;;;10.48;6.97;;;;;;;21.15;70.42;100014.43;1675368;85;21717;-56
2021/07/22 05:29:22;;;;;;;11.48;7.25;;;;;;;21.16;70.36;100009.14;1675501;85;21402;-53
2021/07/22 05:32:33;;;;;;;10.23;6.17;;;;;;;21.15;70.32;100015.82;1753441;81;21807;-54
2021/07/22 05:35:43;;;;;;;10.48;7.33;;;;;;;21.18;70.50;100016.17;1752317;81;21326;-55
2021/07/22 05:39:02;;;;;;;10.10;7.45;;;;;;;21.22;69.96;100018.72;1736422;81;21263;-54
2021/07/22 05:42:09;;;;;;;10.10;7.25;;;;;;;21.26;69.59;100020.45;1716142;81;21223;-55
2021/07/22 05:45:16;;;;;;;10.78;7.15;;;;;;;21.25;69.47;100022.96;1714443;83;21212;-57
2021/07/22 05:48:22;;;;;;;11.60;6.75;;;;;;;21.29;69.89;100023.59;1762325;80;21386;-53
2021/07/22 05:51:31;;;;;;;8.60;6.65;;;;;;;21.37;68.96;100025.09;1770617;80;21201;-54
2021/07/22 05:54:34;;;;;;;8.58;6.00;;;;;;;21.47;69.21;100016.33;1748191;81;21375;-55
2021/07/22 05:57:45;;;;;;;10.80;6.20;;;;;;;21.66;67.89;100019.70;1723442;82;21616;-53
2021/07/22 06:00:51;;;;;;;10.35;6.67;;;;;;;21.77;67.49;100022.95;1741727;80;21175;-55
2021/07/22 06:03:57;;;;;;;8.83;5.92;;;;;;;21.88;67.01;100010.27;1668155;85;21229;-58
2021/07/22 06:07:03;;;;;;;8.55;6.10;;;;;;;21.96;65.72;100012.61;1693951;84;21213;-53
2021/07/22 06:10:10;;;;;;;9.35;6.35;;;;;;;22.02;65.10;100016.33;1744506;80;21208;-55
2021/07/22 06:13:15;;;;;;;9.55;5.97;;;;;;;22.06;65.23;100011.36;1744529;82;21204;-53
2021/07/22 06:16:53;;;;;;;12.95;6.47;;;;;;;22.10;65.17;100001.36;1755667;77;21619;-64
2021/07/22 06:20:00;;;;;;;9.05;5.00;;;;;;;22.17;64.73;100008.14;1732217;82;21750;-60
2021/07/22 06:23:11;;;;;;;8.73;5.50;;;;;;;22.25;64.30;100015.22;1746349;82;21685;-62
2021/07/22 07:52:28;;;;;;;6.35;4.17;;;;;;;23.85;54.51;100033.48;1876228;76;28637;-55
2021/07/22 07:55:35;;;;;;;5.60;3.67;;;;;;;23.84;54.79;100032.36;1834448;77;21369;-56
2021/07/22 07:58:40;;;;;;;5.35;4.33;;;;;;;23.97;53.58;100036.10;1777822;80;21338;-57
2021/07/22 08:01:49;;;;;;;7.33;4.00;;;;;;;24.01;53.43;100033.03;1810569;78;21362;-58
2021/07/22 08:04:57;;;;;;;7.15;4.50;;;;;;;24.07;53.26;100032.79;1782130;79;21189;-57
2021/07/22 08:08:03;;;;;;;6.25;4.30;;;;;;;24.12;53.12;100046.80;1797531;79;21212;-56
2021/07/22 08:43:53;;;;;;;6.12;3.30;;;;;;;25.12;50.37;100017.45;1785839;79;28749;-51
2021/07/22 08:46:58;;;;;;;7.33;3.25;;;;;;;25.16;50.26;100018.02;1758398;80;21256;-54
2021/07/22 08:50:04;;;;;;;5.12;3.05;;;;;;;25.26;49.25;100039.59;1805910;79;21321;-53
2021/07/22 08:53:11;;;;;;;4.45;2.75;;;;;;;25.37;48.19;100028.69;1806965;78;21321;-51
2021/07/22 08:56:19;;;;;;;5.85;2.87;;;;;;;25.31;48.94;100053.61;1736744;78;21193;-66
2021/07/22 08:59:26;;;;;;;3.62;2.80;;;;;;;25.20;49.00;100029.52;1732658;82;21219;-67
2021/07/22 09:02:34;;;;;;;5.00;2.75;;;;;;;25.21;49.32;100028.38;1696822;83;21337;-67
2021/07/22 09:05:42;;;;;;;6.25;2.62;;;;;;;25.14;47.96;100029.20;1696374;83;21262;-67
2021/07/22 09:08:48;;;;;;;2.90;2.00;;;;;;;25.15;47.62;100043.52;1696532;84;21758;-66
2021/07/22 09:12:10;;;;;;;6.55;2.67;;;;;;;25.15;46.82;100033.70;1678767;84;21274;-65
2021/07/22 09:15:20;;;;;;;6.12;2.20;;;;;;;25.10;46.89;100023.89;1706418;83;21195;-67
2021/07/22 09:18:39;;;;;;;3.55;2.50;;;;;;;25.07;47.00;100032.86;1706590;84;21217;-67
2021/07/22 09:21:42;;;;;;;8.75;2.50;;;;;;;25.10;47.83;100018.29;1706895;83;21237;-63
2021/07/22 09:25:00;;;;;;;6.80;2.47;;;;;;;25.11;47.47;100026.41;1668568;84;21230;-66
2021/07/22 09:28:07;;;;;;;3.65;2.33;;;;;;;25.19;48.76;100030.61;1706404;84;21198;-67
2021/07/22 09:31:15;;;;;;;6.62;3.75;;;;;;;25.38;47.78;100040.17;1706584;83;21281;-65
2021/07/22 09:34:31;;;;;;;5.60;2.50;;;;;;;25.37;47.16;100027.30;1709470;82;21455;-67
2021/07/22 09:37:38;;;;;;;3.17;2.42;;;;;;;25.43;46.25;100028.97;1698975;84;21211;-65
2021/07/22 09:40:44;;;;;;;7.75;2.33;;;;;;;25.45;46.56;100047.75;1707345;83;21825;-67
2021/07/22 09:43:49;;;;;;;4.60;2.40;;;;;;;25.48;46.44;100029.78;1735571;82;21339;-66
2021/07/22 09:46:57;;;;;;;6.08;2.35;;;;;;;25.56;45.39;100053.05;1711619;82;21393;-67
2021/07/22 09:50:01;;;;;;;5.75;2.47;;;;;;;25.55;44.71;100046.33;1735250;82;21341;-67
2021/07/22 09:53:21;;;;;;;3.77;2.20;;;;;;;25.57;44.95;100039.33;1735258;82;21372;-66
2021/07/22 09:56:32;;;;;;;5.30;2.05;;;;;;;25.64;45.34;100038.46;1735328;82;21416;-67
2021/07/22 09:59:37;;;;;;;4.03;2.02;;;;;;;25.78;45.45;100034.53;1726699;83;21392;-69
2021/07/22 10:02:45;;;;;;;5.47;2.35;;;;;;;25.84;44.39;100029.18;1727918;83;21915;-66
2021/07/22 10:05:59;;;;;;;6.85;2.33;;;;;;;25.81;44.58;100031.16;1713350;82;21444;-66
2021/07/22 10:09:06;;;;;;;4.37;2.20;;;;;;;25.73;44.94;100024.16;1706545;83;21382;-63
2021/07/22 10:12:15;;;;;;;4.47;2.35;;;;;;;25.79;44.82;100062.84;1711221;83;21243;-66
2021/07/22 10:15:20;;;;;;;5.60;2.10;;;;;;;25.86;44.63;100018.53;1711507;83;21857;-64
2021/07/22 10:18:29;;;;;;;7.55;2.35;;;;;;;25.96;44.02;100031.10;1665138;83;21351;-62
2021/07/22 10:21:35;;;;;;;5.37;2.15;;;;;;;25.98;42.93;100036.72;1716553;82;21272;-62
2021/07/22 10:24:40;;;;;;;4.97;2.15;;;;;;;26.01;42.69;100038.14;1708492;83;21389;-66
2021/07/22 10:27:45;;;;;;;3.40;1.92;;;;;;;26.05;42.78;100019.63;1696834;84;21298;-67
2021/07/22 10:30:53;;;;;;;4.40;1.85;;;;;;;26.17;42.60;100024.34;1688041;82;21424;-67
2021/07/22 10:33:58;;;;;;;4.37;1.85;;;;;;;26.27;42.18;100050.39;1707562;84;21793;-66
2021/07/22 10:37:05;;;;;;;4.90;2.17;;;;;;;26.25;40.90;100040.59;1727698;82;21806;-66
2021/07/22 10:40:16;;;;;;;4.08;1.87;;;;;;;26.18;41.07;100034.42;1710496;82;21397;-66
2021/07/22 10:43:51;;;;;;;4.70;2.08;;;;;;;26.18;40.87;100033.02;1685399;82;21224;-63
2021/07/22 10:47:11;;;;;;;3.95;1.98;;;;;;;26.19;40.91;100029.11;1699562;82;21370;-66
2021/07/22 10:50:17;;;;;;;5.03;1.98;;;;;;;26.27;39.99;100034.13;1721011;82;21341;-65
2021/07/22 10:53:22;;;;;;;4.75;1.85;;;;;;;26.34;40.08;100033.25;1716441;83;21946;-64
2021/07/22 10:56:52;;;;;;;2.52;1.90;;;;;;;26.51;40.44;100023.92;1723041;82;22274;-66
2021/07/22 11:41:49;;;;;;;3.47;1.80;;;;;;;27.41;34.63;100033.74;1785588;79;28167;-58
2021/07/22 11:45:12;;;;;;;4.58;1.80;;;;;;;27.36;34.38;100019.17;1782262;80;21349;-57
2021/07/22 11:48:32;;;;;;;;;;;;;;;27.29;34.75;100046.77;1763236;80;21247;-57
2021/07/22 11:51:37;;;;;;;5.15;2.00;;;;;;;27.08;34.60;100042.98;1715346;83;20246;-58
2021/07/22 11:54:44;;;;;;;6.97;1.82;;;;;;;26.84;34.33;100039.20;1701313;83;21406;-57
2021/07/22 11:57:52;;;;;;;2.20;1.60;;;;;;;26.84;35.49;100035.83;1705888;82;21346;-57
2021/07/22 12:00:58;;;;;;;6.87;2.00;;;;;;;26.95;35.43;100036.05;1712335;82;21224;-60
2021/07/22 12:04:05;;;;;;;6.70;1.90;;;;;;;26.98;34.96;100031.24;1704282;84;21223;-57
2021/07/22 12:07:13;;;;;;;4.55;2.02;;;;;;;26.92;34.40;100047.87;1703996;84;21678;-57
2021/07/22 12:10:23;;;;;;;5.30;1.98;;;;;;;26.89;34.60;100031.59;1704839;84;21228;-59
2021/07/22 12:13:29;;;;;;;3.10;1.67;;;;;;;26.86;34.06;100039.17;1686695;84;21205;-58
2021/07/22 12:16:36;;;;;;;5.55;1.82;;;;;;;26.84;34.71;100032.17;1708907;82;21765;-59
2021/07/22 12:19:46;;;;;;;4.53;1.92;;;;;;;26.85;35.01;100034.69;1733753;82;21192;-56
2021/07/22 12:22:52;;;;;;;5.28;1.55;;;;;;;26.87;34.61;100042.27;1733389;82;21251;-58
2021/07/22 12:26:05;;;;;;;6.50;1.70;;;;;;;26.81;34.47;100045.40;1733653;82;21211;-59
2021/07/22 12:29:10;;;;;;;;;;;;;;;26.76;35.14;100044.88;1727856;82;21200;-59
2021/07/22 12:32:16;;;;;;;3.02;1.62;;;;;;;26.69;34.66;100040.71;1705527;83;20266;-57
2021/07/22 12:35:42;;;;;;;4.78;1.70;;;;;;;26.55;34.79;100039.60;1700553;82;21216;-57
2021/07/22 12:38:49;;;;;;;5.10;1.70;;;;;;;26.56;35.59;100046.33;1734230;82;21228;-58
2021/07/22 12:41:56;;;;;;;4.72;1.87;;;;;;;26.70;35.62;100043.78;1718816;79;21773;-58
2021/07/22 12:45:01;;;;;;;3.85;1.80;;;;;;;26.70;35.29;100027.78;1705597;83;21278;-58
2021/07/22 12:48:06;;;;;;;2.67;1.80;;;;;;;26.63;35.38;100030.58;1765081;80;21748;-62
2021/07/22 12:51:22;;;;;;;3.65;1.90;;;;;;;26.44;35.63;100025.63;1765704;80;21200;-59
2021/07/22 12:54:26;;;;;;;5.40;2.15;;;;;;;26.37;35.30;100042.48;1765809;80;21803;-58
2021/07/22 12:57:47;;;;;;;3.98;1.70;;;;;;;26.39;35.31;100034.63;1765363;81;21240;-60
2021/07/22 13:00:53;;;;;;;4.30;1.90;;;;;;;26.47;35.05;100028.41;1755249;80;21359;-58
2021/07/22 13:04:02;;;;;;;2.55;1.95;;;;;;;26.62;35.61;100031.72;1745970;81;21192;-58
2021/07/22 13:07:09;;;;;;;5.22;2.00;;;;;;;26.75;35.09;100038.95;1734432;82;21180;-58
2021/07/22 13:10:16;;;;;;;4.85;2.12;;;;;;;26.78;35.38;100034.19;1735143;82;21236;-58
2021/07/22 13:13:22;;;;;;;3.20;2.15;;;;;;;26.72;35.46;100021.88;1735334;82;21200;-59
2021/07/22 13:16:28;;;;;;;3.08;2.05;;;;;;;26.70;35.62;100036.20;1757811;81;21264;-58
2021/07/22 13:19:35;;;;;;;3.37;1.72;;;;;;;26.71;35.77;100023.83;1765883;80;21215;-58
2021/07/22 13:22:40;;;;;;;4.10;1.90;;;;;;;26.77;35.17;100031.09;1765929;81;21303;-58
2021/07/22 13:25:46;;;;;;;3.02;1.72;;;;;;;26.80;35.59;100026.87;1766577;81;21316;-59
2021/07/22 13:28:52;;;;;;;2.72;2.25;;;;;;;26.87;34.95;100033.84;1766281;80;21173;-58
2021/07/22 13:31:56;;;;;;;2.25;1.52;;;;;;;26.89;34.73;100034.41;1767135;81;21697;-58
2021/07/22 13:35:01;;;;;;;2.27;1.65;;;;;;;26.90;33.97;100033.27;1766166;80;21173;-57
2021/07/22 13:38:08;;;;;;;5.33;1.90;;;;;;;26.88;34.14;100043.13;1765758;80;21265;-58
2021/07/22 13:41:16;;;;;;;3.45;1.70;;;;;;;26.75;33.93;100034.75;1743260;81;22036;-57
2021/07/22 13:44:21;;;;;;;9.78;1.92;;;;;;;26.74;34.12;100035.03;1719020;82;21761;-58
2021/07/22 13:47:27;;;;;;;2.95;1.50;;;;;;;26.80;34.52;100031.09;1761090;80;21256;-57
2021/07/22 13:50:34;;;;;;;4.50;1.72;;;;;;;26.84;34.03;100042.01;1764705;81;21263;-59
2021/07/22 13:53:40;;;;;;;6.65;2.10;;;;;;;26.79;33.66;100037.27;1747968;81;21700;-59
2021/07/22 13:56:46;;;;;;;3.92;2.08;;;;;;;26.70;33.26;100036.20;1742560;81;21244;-62
2021/07/22 13:59:53;;;;;;;2.25;1.80;;;;;;;26.62;33.55;100033.13;1764375;81;21803;-62
2021/07/22 14:03:03;;;;;;;3.00;1.67;;;;;;;26.60;34.27;100034.81;1764347;81;21215;-57
2021/07/22 14:06:09;;;;;;;3.50;1.70;;;;;;;26.65;33.89;100033.97;1764089;81;21255;-58
2021/07/22 14:09:16;;;;;;;4.40;1.60;;;;;;;26.66;33.93;100046.33;1765037;81;21184;-58
2021/07/22 14:12:20;;;;;;;5.47;1.65;;;;;;;26.66;33.37;100023.86;1765137;81;21219;-58
2021/07/22 14:15:27;;;;;;;3.47;1.50;;;;;;;26.67;34.13;100035.94;1736173;81;21264;-59
2021/07/22 14:18:33;;;;;;;4.72;1.67;;;;;;;26.69;33.23;100045.74;1750521;81;21259;-60
2021/07/22 14:21:42;;;;;;;6.90;1.80;;;;;;;26.65;33.46;100036.23;1755601;81;21164;-59
2021/07/22 14:24:48;;;;;;;4.80;1.65;;;;;;;26.67;33.50;100031.73;1739872;81;21208;-60
2021/07/22 14:27:53;;;;;;;4.78;1.95;;;;;;;26.67;33.82;100036.76;1734342;82;21212;-59
2021/07/22 14:31:01;;;;;;;2.25;1.50;;;;;;;26.67;32.92;100041.55;1734275;82;21322;-59
2021/07/22 14:34:06;;;;;;;5.03;1.90;;;;;;;26.59;33.32;100042.98;1747069;81;21196;-59
2021/07/22 14:37:12;;;;;;;3.60;1.90;;;;;;;26.55;33.44;100043.26;1764379;81;21180;-60
2021/07/22 14:40:20;;;;;;;2.60;1.47;;;;;;;26.49;33.47;100036.00;1765027;81;21201;-60
2021/07/22 14:43:27;;;;;;;5.97;1.62;;;;;;;26.30;33.85;100039.17;1756176;79;21255;-59
2021/07/22 14:46:35;;;;;;;9.80;2.00;;;;;;;26.28;33.82;100042.27;1734354;82;21215;-60
2021/07/22 14:49:43;;;;;;;3.67;1.82;;;;;;;26.34;33.53;100033.25;1742632;81;21728;-59
2021/07/22 14:52:49;;;;;;;5.40;1.75;;;;;;;26.38;33.80;100033.81;1744378;81;21275;-58
2021/07/22 14:55:57;;;;;;;3.98;1.62;;;;;;;26.42;33.75;100048.09;1737405;81;21729;-58
2021/07/22 14:59:04;;;;;;;4.60;1.62;;;;;;;26.42;33.63;100036.86;1748776;80;21188;-58
2021/07/22 15:02:12;;;;;;;4.28;1.95;;;;;;;26.44;33.51;100048.09;1735289;82;21752;-58
2021/07/22 15:05:19;;;;;;;4.40;1.60;;;;;;;26.48;33.86;100047.78;1749794;81;21291;-57
2021/07/22 15:08:24;;;;;;;3.55;1.80;;;;;;;26.73;33.09;100041.80;1761506;81;21161;-58
2021/07/22 15:11:30;;;;;;;5.45;1.67;;;;;;;27.08;32.88;100047.19;1764083;80;22172;-59
2021/07/22 15:14:37;;;;;;;3.00;1.77;;;;;;;27.03;32.18;100052.84;1741149;81;21240;-58
2021/07/22 15:17:44;;;;;;;3.65;1.52;;;;;;;26.78;32.68;100051.61;1759750;81;21192;-58
2021/07/22 15:20:52;;;;;;;3.77;1.70;;;;;;;26.56;32.99;100051.95;1740094;81;21275;-58
2021/07/22 15:24:00;;;;;;;5.12;1.75;;;;;;;26.44;33.48;100050.05;1696027;83;21271;-58
2021/07/22 15:27:06;;;;;;;2.85;1.50;;;;;;;26.35;33.55;100048.98;1736658;81;21550;-57
2021/07/22 15:30:13;;;;;;;3.50;1.57;;;;;;;26.15;33.59;100051.84;1734485;82;21223;-58
2021/07/22 15:33:19;;;;;;;4.97;1.47;;;;;;;25.93;33.78;100054.12;1734435;82;21215;-58
2021/07/22 15:36:26;;;;;;;2.12;1.57;;;;;;;25.77;34.07;100060.87;1734086;82;21212;-57
2021/07/22 15:39:35;;;;;;;3.75;2.00;;;;;;;25.73;34.12;100061.17;1740658;80;21693;-59
2021/07/22 15:42:41;;;;;;;3.05;1.90;;;;;;;25.82;34.43;100060.87;1734573;82;21195;-59
2021/07/22 15:45:47;;;;;;;2.83;1.50;;;;;;;25.86;34.00;100065.62;1738342;78;21847;-57
2021/07/22 15:48:53;;;;;;;2.70;1.70;;;;;;;25.91;34.14;100068.42;1699759;83;21713;-58
2021/07/22 15:52:00;;;;;;;3.98;1.75;;;;;;;25.96;34.35;100058.60;1741004;81;21260;-58
2021/07/22 15:55:09;;;;;;;5.03;1.85;;;;;;;25.84;34.59;100069.30;1743190;81;21211;-57
2021/07/22 15:58:20;;;;;;;2.80;1.52;;;;;;;25.73;34.88;100063.43;1762031;81;21828;-58
2021/07/22 16:01:25;;;;;;;3.02;1.82;;;;;;;25.75;35.27;100074.37;1738937;80;21752;-58
2021/07/22 16:04:31;;;;;;;5.15;1.75;;;;;;;25.79;35.10;100058.64;1751602;81;21169;-58
2021/07/22 16:07:38;;;;;;;3.02;1.40;;;;;;;25.90;34.94;100061.15;1752517;81;21181;-59
2021/07/22 16:10:44;;;;;;;4.17;2.00;;;;;;;26.01;34.59;100060.03;1742772;81;21208;-57
2021/07/22 16:13:52;;;;;;;4.75;1.92;;;;;;;26.11;34.49;100061.97;1740436;81;21195;-59
2021/07/22 16:16:58;;;;;;;5.97;2.70;;;;;;;26.34;34.57;100058.50;1741555;81;21228;-58
2021/07/22 16:20:08;;;;;;;4.05;2.62;;;;;;;26.56;34.14;100067.39;1743924;81;21208;-58
2021/07/22 16:23:12;;;;;;;9.60;2.62;;;;;;;26.64;34.16;100055.59;1742627;81;21540;-61
2021/07/22 16:26:19;;;;;;;6.80;3.12;;;;;;;26.61;34.01;100053.33;1733460;81;21259;-59
2021/07/22 16:29:25;;;;;;;6.28;3.02;;;;;;;26.32;34.18;100062.19;1733829;82;21228;-58
2021/07/22 16:32:31;;;;;;;8.85;3.80;;;;;;;25.98;34.81;100070.39;1733948;82;21252;-58
2021/07/22 16:35:35;;;;;;;7.28;3.80;;;;;;;25.72;35.29;100070.73;1734488;82;21208;-59
2021/07/22 16:38:40;;;;;;;8.10;3.20;;;;;;;25.49;35.59;100070.73;1738988;81;21235;-57
2021/07/22 16:41:47;;;;;;;6.37;2.30;;;;;;;25.33;35.81;100080.22;1761343;81;21205;-58
2021/07/22 16:44:55;;;;;;;4.55;2.50;;;;;;;25.17;36.00;100074.87;1745177;81;21250;-56
2021/07/22 16:48:00;;;;;;;6.10;2.58;;;;;;;25.00;35.81;100081.59;1764019;81;21184;-58
2021/07/22 16:51:08;;;;;;;4.55;2.30;;;;;;;24.85;36.01;100083.50;1764455;80;21219;-58
2021/07/22 16:54:13;;;;;;;3.50;2.25;;;;;;;24.73;35.99;100090.77;1750160;81;21193;-57
2021/07/22 16:57:20;;;;;;;2.65;1.60;;;;;;;24.60;36.25;100092.64;1764593;81;21745;-58
2021/07/22 17:00:28;;;;;;;4.45;1.67;;;;;;;24.47;36.48;100093.14;1755381;80;21275;-58
2021/07/22 17:03:36;;;;;;;5.35;1.82;;;;;;;24.35;36.82;100098.14;1764054;81;21173;-57
2021/07/22 17:06:45;;;;;;;3.10;1.77;;;;;;;24.25;36.90;100097.22;1749617;81;21231;-58
2021/07/22 17:09:51;;;;;;;3.67;1.90;;;;;;;24.16;37.11;100097.47;1754582;80;21200;-58
2021/07/22 17:12:59;;;;;;;7.85;1.75;;;;;;;24.03;37.41;100099.34;1764655;80;21228;-59
2021/07/22 17:16:04;;;;;;;3.12;1.65;;;;;;;23.88;37.82;100102.84;1764831;80;21588;-58